Latest Coastal Weather Observations for Cato Island

IDQ60701

Issued at 4:35 pm EST Wednesday 23 April 2014 (issued every 10 minutes, with the page automatically refreshed every 10 minutes)

About coastal observations | Map of coastal stations | Coastal observations for QLD | Marine services | Other Formats
Station Details ID: 200601 Name: CATO ISLAND Lat: -23.25 Lon: 155.54 Height: 6.3 m
Data from the previous 72 hours. | See also: Recent months for locations in Queensland
Date/Time
EST
Temp

°C
Wind Pressure Rain
since 9am
mm
Weather Cloud Vis
km
Sea
Height
m
Swell
Dir
 
Speed
knots
Gust
knots
hPa Trend Height
m
Period
s
Dir
23/04:30pm 25.2 ENE 14 16 1014.4 - - - - - - - - -
23/04:00pm 25.3 ENE 16 18 1014.0 - - - - - - - - -
23/03:30pm 25.4 ENE 15 17 1013.8 - - - - - - - - -
23/03:00pm 25.4 ENE 15 17 1014.0 - - - - - - - - -
23/02:30pm 25.9 ENE 13 16 1014.2 - - - - - - - - -
23/02:00pm 25.8 E 13 15 1014.4 - - - - - - - - -
23/01:30pm 26.0 E 13 15 1014.7 - - - - - - - - -
23/01:00pm 26.0 E 11 13 1015.1 - - - - - - - - -
23/12:30pm 26.2 ENE 11 13 1015.3 - - - - - - - - -
23/12:00pm 26.5 ENE 12 15 1015.8 - - - - - - - - -
23/11:30am 26.3 ENE 14 16 1015.8 - - - - - - - - -
23/11:00am 25.8 E 12 14 1016.3 - - - - - - - - -
23/10:30am 26.0 ENE 12 15 1016.9 - - - - - - - - -
23/10:00am 26.0 ENE 11 13 1017.5 - - - - - - - - -
23/09:30am 26.2 ENE 12 14 1017.7 - - - - - - - - -
23/09:00am 25.4 ENE 12 14 1017.8 - - - - - - - - -
23/08:30am 25.4 ENE 12 14 1017.9 - - - - - - - - -
23/08:00am 25.0 ENE 12 14 1017.8 - - - - - - - - -
23/07:30am 24.6 ENE 11 13 1017.5 - - - - - - - - -
23/07:00am 24.4 ENE 13 15 1017.3 - - - - - - - - -
23/06:30am 24.4 E 13 14 1017.0 - - - - - - - - -
23/06:00am 24.2 E 11 12 1017.1 - - - - - - - - -
23/05:30am 24.2 E 10 13 1017.2 - - - - - - - - -
23/05:00am 24.3 E 11 13 1016.9 - - - - - - - - -
23/04:30am 24.4 E 11 13 1016.9 - - - - - - - - -
23/04:00am 24.3 E 12 14 1016.8 - - - - - - - - -
23/03:30am 24.3 E 13 15 1016.5 - - - - - - - - -
23/03:00am 24.2 E 14 16 1016.4 - - - - - - - - -
23/02:30am 24.3 E 13 16 1016.8 - - - - - - - - -
23/02:00am 24.3 E 15 18 1016.6 - - - - - - - - -
23/01:30am 24.3 E 14 16 1017.1 - - - - - - - - -
23/01:00am 24.3 E 14 15 1017.3 - - - - - - - - -
23/12:30am 24.4 E 14 16 1017.6 - - - - - - - - -
23/12:00am 24.2 E 15 17 1018.0 - - - - - - - - -
 
Date/Time
EST
Temp

°C
Wind Pressure Rain
since 9am
mm
Weather Cloud Vis
km
Sea
Height
m
Swell
Dir
 
Speed
knots
Gust
knots
hPa Trend Height
m
Period
s
Dir
22/11:30pm 24.3 E 16 19 1017.7 - - - - - - - - -
22/11:00pm 24.3 E 16 19 1017.9 - - - - - - - - -
22/10:30pm 24.3 E 17 20 1018.1 - - - - - - - - -
22/10:00pm 24.5 E 16 18 1018.2 - - - - - - - - -
22/09:30pm 24.5 E 16 19 1018.4 - - - - - - - - -
22/09:00pm 24.5 E 17 20 1018.4 - - - - - - - - -
22/08:30pm 24.6 E 17 20 1018.6 - - - - - - - - -
22/08:00pm 24.7 E 19 22 1018.7 - - - - - - - - -
22/07:30pm 24.7 E 19 22 1018.3 - - - - - - - - -
22/07:00pm 24.7 E 20 23 1018.1 - - - - - - - - -
22/06:30pm 24.8 E 16 19 1017.9 - - - - - - - - -
22/06:00pm 24.8 E 17 20 1017.8 - - - - - - - - -
22/05:30pm 24.8 E 18 21 1017.5 - - - - - - - - -
22/05:00pm 24.8 E 17 20 1017.5 - - - - - - - - -
22/04:30pm 24.9 E 18 21 1017.1 - - - - - - - - -
22/04:00pm 25.2 E 17 21 1017.1 - - - - - - - - -
22/03:30pm 25.2 E 17 20 1016.9 - - - - - - - - -
22/03:00pm 25.4 E 15 18 1017.1 - - - - - - - - -
22/02:30pm 25.4 E 16 18 1017.0 - - - - - - - - -
22/02:00pm 25.6 E 15 18 1017.0 - - - - - - - - -
22/01:30pm 25.6 E 15 17 1017.3 - - - - - - - - -
22/01:00pm 25.5 E 15 17 1017.5 - - - - - - - - -
22/12:30pm 25.5 E 16 18 1017.8 - - - - - - - - -
22/12:00pm 25.6 E 15 17 1018.0 - - - - - - - - -
22/11:30am 25.6 E 15 18 1018.6 - - - - - - - - -
22/11:00am 25.7 E 16 17 1018.9 - - - - - - - - -
22/10:30am 25.5 E 16 18 1019.3 - - - - - - - - -
22/10:00am 25.5 E 15 17 1019.7 - - - - - - - - -
22/09:30am 25.6 E 15 18 1020.0 - - - - - - - - -
22/09:00am 25.5 E 15 17 1020.2 - - - - - - - - -
22/08:30am 25.5 E 15 18 1019.9 - - - - - - - - -
22/08:00am 25.1 E 16 18 1019.6 - - - - - - - - -
22/07:30am 24.9 E 16 18 1019.4 - - - - - - - - -
22/07:00am 24.6 E 16 17 1019.3 - - - - - - - - -
22/06:30am 24.5 E 15 18 1019.2 - - - - - - - - -
22/06:00am 24.3 E 16 19 1019.0 - - - - - - - - -
22/05:30am 24.3 E 16 23 1018.6 - - - - - - - - -
22/05:00am 24.2 E 17 19 1018.4 - - - - - - - - -
22/04:30am 24.2 E 17 20 1018.1 - - - - - - - - -
22/04:00am 24.3 E 17 20 1018.1 - - - - - - - - -
22/03:30am 24.2 E 16 19 1018.0 - - - - - - - - -
22/03:00am 24.1 E 16 20 1018.0 - - - - - - - - -
22/02:30am 24.2 E 16 19 1017.9 - - - - - - - - -
22/02:00am 24.2 E 18 21 1018.1 - - - - - - - - -
22/01:30am 24.3 E 16 19 1018.3 - - - - - - - - -
22/01:00am 24.3 E 17 21 1018.7 - - - - - - - - -
22/12:30am 24.3 E 17 21 1019.0 - - - - - - - - -
22/12:00am 24.2 E 15 18 1019.3 - - - - - - - - -
 
Date/Time
EST
Temp

°C
Wind Pressure Rain
since 9am
mm
Weather Cloud Vis
km
Sea
Height
m
Swell
Dir
 
Speed
knots
Gust
knots
hPa Trend Height
m
Period
s
Dir
21/11:30pm 24.2 E 16 20 1019.6 - - - - - - - - -
21/11:00pm 24.3 E 17 19 1019.5 - - - - - - - - -
21/10:30pm 24.3 E 18 23 1019.6 - - - - - - - - -
21/10:00pm 24.3 E 18 22 1019.7 - - - - - - - - -
21/09:30pm 24.4 E 20 25 1019.7 - - - - - - - - -
21/09:00pm 24.5 E 20 23 1019.5 - - - - - - - - -
21/08:30pm 24.5 E 19 24 1019.6 - - - - - - - - -
21/08:00pm 24.4 E 18 21 1019.5 - - - - - - - - -
21/07:30pm 24.5 E 18 21 1019.3 - - - - - - - - -
21/07:00pm 24.5 E 18 21 1019.1 - - - - - - - - -
21/06:30pm 24.5 ESE 17 20 1018.8 - - - - - - - - -
21/06:00pm 24.6 E 18 21 1018.5 - - - - - - - - -
21/05:30pm 24.6 ESE 17 21 1018.4 - - - - - - - - -
21/05:00pm 24.6 ESE 17 20 1018.3 - - - - - - - - -
21/04:30pm 24.7 ESE 16 20 1017.9 - - - - - - - - -
21/04:00pm 24.9 ESE 15 19 1017.8 - - - - - - - - -
21/03:30pm 24.8 ESE 14 17 1017.6 - - - - - - - - -
21/03:00pm 25.0 ESE 13 17 1017.6 - - - - - - - - -
21/02:30pm 25.1 ESE 12 15 1017.7 - - - - - - - - -
21/02:00pm 25.0 ESE 12 15 1017.5 - - - - - - - - -
21/01:30pm 25.0 ESE 12 14 1017.7 - - - - - - - - -
21/01:00pm 25.3 E 12 15 1017.8 - - - - - - - - -
21/12:30pm 25.3 E 12 15 1018.0 - - - - - - - - -
21/12:00pm 25.1 E 12 14 1018.2 - - - - - - - - -
21/11:30am 25.5 E 13 15 1018.5 - - - - - - - - -
21/11:00am 25.3 E 12 15 1018.8 - - - - - - - - -
21/10:30am 25.1 E 12 15 1019.3 - - - - - - - - -
21/10:00am 25.6 E 12 16 1019.5 - - - - - - - - -
21/09:30am 25.2 E 12 15 1019.6 - - - - - - - - -
21/09:00am 25.1 E 12 15 1019.6 - - - - - - - - -
21/08:30am 25.1 E 12 15 1019.6 - - - - - - - - -
21/08:00am 24.9 E 12 15 1019.5 - - - - - - - - -
21/07:30am 24.8 E 12 14 1019.2 - - - - - - - - -
21/07:00am 24.5 E 11 14 1019.0 - - - - - - - - -
21/06:30am 24.2 E 11 14 1018.7 - - - - - - - - -
21/06:00am 24.0 E 10 12 1018.6 - - - - - - - - -
21/05:30am 23.9 E 10 13 1018.2 - - - - - - - - -
21/05:00am 23.8 E 10 12 1018.1 - - - - - - - - -
21/04:30am 24.0 E 10 13 1017.8 - - - - - - - - -
21/04:00am 23.9 E 9 11 1017.7 - - - - - - - - -
21/03:30am 23.8 E 11 13 1017.5 - - - - - - - - -
21/03:00am 24.0 E 11 15 1017.4 - - - - - - - - -
21/02:30am 23.9 E 10 13 1017.3 - - - - - - - - -
21/02:00am 24.0 E 10 12 1017.5 - - - - - - - - -
21/01:30am 24.1 E 11 13 1017.6 - - - - - - - - -
21/01:00am 24.0 ESE 11 13 1017.7 - - - - - - - - -
21/12:30am 24.2 ESE 11 13 1018.1 - - - - - - - - -
21/12:00am 24.3 ESE 10 12 1018.2 - - - - - - - - -
 
Date/Time
EST
Temp

°C
Wind Pressure Rain
since 9am
mm
Weather Cloud Vis
km
Sea
Height
m
Swell
Dir
 
Speed
knots
Gust
knots
hPa Trend Height
m
Period
s
Dir
20/11:30pm 24.2 ESE 9 12 1018.3 - - - - - - - - -
20/11:00pm 24.2 ESE 9 11 1018.4 - - - - - - - - -
20/10:30pm 24.3 ESE 9 12 1018.4 - - - - - - - - -
20/10:00pm 24.4 ESE 9 12 1018.5 - - - - - - - - -
20/09:30pm 24.5 ESE 10 12 1018.5 - - - - - - - - -
20/09:00pm 24.5 ESE 9 11 1018.5 - - - - - - - - -
20/08:30pm 24.5 ESE 10 13 1018.4 - - - - - - - - -
20/08:00pm 24.5 ESE 11 13 1018.2 - - - - - - - - -
20/07:30pm 24.5 ESE 11 13 1017.9 - - - - - - - - -
20/07:00pm 24.4 ESE 10 13 1017.7 - - - - - - - - -
20/06:30pm 24.5 ESE 10 12 1017.2 - - - - - - - - -
20/06:00pm 24.4 ESE 11 13 1016.8 - - - - - - - - -
20/05:30pm 24.4 ESE 10 13 1016.7 - - - - - - - - -
20/05:00pm 24.6 ESE 10 13 1016.4 - - - - - - - - -

Other Formats:

Comma delimited format used in spreadsheet applications
http://www.bom.gov.au/fwo/IDQ60701/IDQ60701.94394.axf

JavaScript Object Notation format (JSON) in row-major order
http://www.bom.gov.au/fwo/IDQ60701/IDQ60701.94394.json